createdAt,value
2019-04-20T00:01:25.771Z,99178.23
2019-04-20T00:05:27.478Z,99168.72
2019-04-20T00:09:36.552Z,99171.52
2019-04-20T00:13:47.719Z,99168.86
2019-04-20T00:17:52.229Z,99165.83
2019-04-20T00:22:13.677Z,99158.90
2019-04-20T00:26:27.364Z,99165.83
2019-04-20T00:30:48.138Z,99159.61
2019-04-20T00:34:37.176Z,99157.48
2019-04-20T00:38:42.653Z,99160.20
2019-04-20T00:42:51.658Z,99158.47
2019-04-20T00:47:04.917Z,99151.12
2019-04-20T00:51:17.364Z,99155.29
2019-04-20T00:55:06.390Z,99160.21
2019-04-20T00:59:26.577Z,99150.28
2019-04-20T01:03:33.906Z,99149.81
2019-04-20T01:07:40.792Z,99150.62
2019-04-20T01:11:42.180Z,99150.77
2019-04-20T01:15:54.083Z,99149.11
2019-04-20T01:19:52.792Z,99145.19
2019-04-20T01:24:02.937Z,99143.59
2019-04-20T01:28:24.195Z,99144.64
2019-04-20T01:32:23.339Z,99148.52
2019-04-20T01:36:36.798Z,99144.58
2019-04-20T01:40:25.526Z,99146.27
2019-04-20T01:44:36.869Z,99149.12
2019-04-20T01:48:39.615Z,99146.64
2019-04-20T01:52:56.475Z,99151.91
2019-04-20T01:57:09.410Z,99150.33
2019-04-20T02:01:16.594Z,99151.83
2019-04-20T02:05:22.867Z,99159.45
2019-04-20T02:09:26.017Z,99157.28
2019-04-20T02:13:38.873Z,99152.38
2019-04-20T02:17:43.545Z,99158.17
2019-04-20T02:21:55.928Z,99163.08
2019-04-20T02:25:50.070Z,99162.75
2019-04-20T02:30:21.649Z,99162.26
2019-04-20T02:34:39.607Z,99165.73
2019-04-20T02:43:09.457Z,99163.25
2019-04-20T02:47:14.728Z,99166.36
2019-04-20T02:51:22.953Z,99165.22
2019-04-20T02:55:32.218Z,99163.09
2019-04-20T02:59:54.071Z,99168.84
2019-04-20T03:03:20.503Z,99162.37
2019-04-20T03:07:32.931Z,99160.69
2019-04-20T03:11:52.949Z,99159.77
2019-04-20T03:15:53.476Z,99156.72
2019-04-20T03:19:50.575Z,99151.25
2019-04-20T03:24:08.435Z,99154.69
2019-04-20T03:28:10.302Z,99148.98
2019-04-20T03:32:49.823Z,99150.86
2019-04-20T03:36:47.210Z,99148.78
2019-04-20T03:40:24.394Z,99150.69
2019-04-20T03:44:21.002Z,99157.20
2019-04-20T03:48:41.506Z,99157.95
2019-04-20T03:53:10.640Z,99151.47
2019-04-20T03:57:21.231Z,99157.28
2019-04-20T04:02:01.672Z,99161.66
2019-04-20T04:05:48.034Z,99153.95
2019-04-20T04:10:00.790Z,99149.55
2019-04-20T04:13:48.159Z,99146.90
2019-04-20T04:17:53.155Z,99150.38
2019-04-20T04:22:11.125Z,99148.13
2019-04-20T04:26:24.567Z,99149.39
2019-04-20T04:30:27.957Z,99153.30
2019-04-20T04:34:39.112Z,99157.24
2019-04-20T04:38:48.747Z,99161.55
2019-04-20T04:42:54.872Z,99162.84
2019-04-20T04:46:44.631Z,99167.70
2019-04-20T04:50:50.893Z,99171.69
2019-04-20T04:54:58.731Z,99172.08
2019-04-20T04:58:58.200Z,99188.55
2019-04-20T05:03:23.314Z,99190.28
2019-04-20T05:07:26.698Z,99191.01
2019-04-20T05:11:19.698Z,99195.67
2019-04-20T05:15:37.850Z,99194.67
2019-04-20T05:19:55.282Z,99197.62
2019-04-20T05:23:53.418Z,99199.56
2019-04-20T05:28:08.184Z,99204.55
2019-04-20T05:32:02.736Z,99201.19
2019-04-20T05:36:18.517Z,99206.39
2019-04-20T05:40:29.264Z,99198.94
2019-04-20T05:44:39.446Z,99207.67
2019-04-20T05:48:45.724Z,99203.50
2019-04-20T05:56:58.885Z,99196.67
2019-04-20T06:01:05.572Z,99190.95
2019-04-20T06:05:10.140Z,99195.48
2019-04-20T06:09:15.641Z,99192.28
2019-04-20T06:13:32.651Z,99186.20
2019-04-20T06:18:05.126Z,99189.84
2019-04-20T06:22:22.583Z,99191.11
2019-04-20T06:30:43.242Z,99195.41
2019-04-20T06:35:00.546Z,99196.41
2019-04-20T06:39:12.928Z,99197.67
2019-04-20T06:43:09.077Z,99192.70
2019-04-20T06:47:18.778Z,99199.78
2019-04-20T06:51:42.113Z,99205.33
2019-04-20T06:55:51.198Z,99203.72
2019-04-20T06:59:56.178Z,99193.14
2019-04-20T07:04:24.782Z,99200.37
2019-04-20T07:08:16.986Z,99203.26
2019-04-20T07:12:12.515Z,99199.42
2019-04-20T07:16:33.023Z,99206.58
2019-04-20T07:20:49.091Z,99207.41
2019-04-20T07:24:55.133Z,99211.13
2019-04-20T07:28:58.972Z,99204.72
2019-04-20T07:37:55.050Z,99209.90
2019-04-20T07:41:41.979Z,99210.34
2019-04-20T07:45:33.531Z,99209.97
2019-04-20T07:49:40.425Z,99211.17
2019-04-20T07:53:45.081Z,99220.69
2019-04-20T07:57:55.109Z,99202.86
2019-04-20T08:02:15.750Z,99198.60
2019-04-20T08:06:25.055Z,99203.28
2019-04-20T08:10:47.423Z,99206.23
2019-04-20T08:14:56.839Z,99198.98
2019-04-20T08:18:53.574Z,99197.94
2019-04-20T08:23:09.273Z,99201.47
2019-04-20T08:26:58.969Z,99197.84
2019-04-20T08:31:30.127Z,99197.78
2019-04-20T08:35:47.520Z,99191.46
2019-04-20T08:39:58.332Z,99192.19
2019-04-20T08:44:11.445Z,99195.94
2019-04-20T08:48:12.865Z,99196.84
2019-04-20T08:52:33.925Z,99189.82
2019-04-20T08:56:13.117Z,99189.10
2019-04-20T09:00:06.880Z,99188.22
2019-04-20T09:04:18.613Z,99184.87
2019-04-20T09:08:24.894Z,99175.02
2019-04-20T09:12:43.629Z,99177.14
2019-04-20T09:16:38.804Z,99176.22
2019-04-20T09:20:48.717Z,99172.09
2019-04-20T09:25:13.347Z,99170.08
2019-04-20T09:29:04.149Z,99169.74
2019-04-20T09:33:36.311Z,99172.44
2019-04-20T09:37:43.132Z,99169.78
2019-04-20T09:42:00.920Z,99168.45
2019-04-20T09:46:02.095Z,99164.11
2019-04-20T09:50:22.536Z,99170.48
2019-04-20T09:54:31.244Z,99166.77
2019-04-20T09:58:31.120Z,99166.85
2019-04-20T10:02:30.938Z,99160.70
2019-04-20T10:06:35.885Z,99157.13
2019-04-20T10:10:42.033Z,99160.86
2019-04-20T10:14:45.298Z,99154.48
2019-04-20T10:18:53.508Z,99144.67
2019-04-20T10:22:56.805Z,99140.02
2019-04-20T10:27:03.060Z,99148.45
2019-04-20T10:31:10.654Z,99135.20
2019-04-20T10:35:18.596Z,99136.54
2019-04-20T10:39:24.608Z,99139.11
2019-04-20T10:43:30.211Z,99144.27
2019-04-20T10:47:35.255Z,99134.82
2019-04-20T10:51:40.152Z,99130.22
2019-04-20T10:55:45.286Z,99126.52
2019-04-20T10:59:51.926Z,99126.77
2019-04-20T11:03:56.998Z,99128.55
2019-04-20T11:08:02.292Z,99127.61
2019-04-20T11:12:08.304Z,99122.77
2019-04-20T11:16:14.767Z,99128.11
2019-04-20T11:20:19.866Z,99127.16
2019-04-20T11:24:26.058Z,99124.44
2019-04-20T11:28:32.263Z,99118.50
2019-04-20T11:32:37.966Z,99113.33
2019-04-20T11:36:43.367Z,99104.38
2019-04-20T11:41:02.511Z,99102.27
2019-04-20T11:44:54.990Z,99096.91
2019-04-20T11:48:59.864Z,99103.36
2019-04-20T11:53:05.591Z,99095.03
2019-04-20T11:57:11.358Z,99093.54
2019-04-20T12:01:30.158Z,99078.77
2019-04-20T12:05:38.135Z,99075.65
2019-04-20T12:09:37.826Z,99077.74
2019-04-20T12:13:42.822Z,99067.92
2019-04-20T12:17:47.693Z,99063.53
2019-04-20T12:21:53.826Z,99056.95
2019-04-20T12:25:59.789Z,99064.20
2019-04-20T12:30:10.113Z,99061.70
2019-04-20T12:34:16.156Z,99042.05
2019-04-20T12:38:21.180Z,99041.50
2019-04-20T12:42:26.072Z,99043.78
2019-04-20T12:46:31.928Z,99031.83
2019-04-20T12:50:37.416Z,99035.55
2019-04-20T12:54:45.963Z,99034.13
2019-04-20T12:58:51.531Z,99035.89
2019-04-20T13:02:56.560Z,99025.83
2019-04-20T13:07:03.715Z,99017.39
2019-04-20T13:11:16.435Z,99020.09
2019-04-20T13:15:28.789Z,99008.73
2019-04-20T13:19:33.782Z,98999.96
2019-04-20T13:23:40.601Z,98993.06
2019-04-20T13:27:45.518Z,98990.65
2019-04-20T13:31:52.019Z,98991.28
2019-04-20T13:35:58.289Z,98990.77
2019-04-20T13:40:06.965Z,98977.59
2019-04-20T13:44:11.985Z,98968.31
2019-04-20T13:48:17.045Z,98962.74
2019-04-20T13:52:22.714Z,98964.53
2019-04-20T13:56:28.098Z,98961.98
2019-04-20T14:00:48.592Z,98953.14
2019-04-20T14:04:54.947Z,98946.09
2019-04-20T14:09:01.302Z,98945.59
2019-04-20T14:13:14.499Z,98941.58
2019-04-20T14:17:15.037Z,98930.27
2019-04-20T14:21:20.387Z,98920.30
2019-04-20T14:25:25.439Z,98917.75
2019-04-20T14:29:30.647Z,98909.23
2019-04-20T14:33:36.890Z,98907.28
2019-04-20T14:37:41.884Z,98910.83
2019-04-20T14:41:46.760Z,98899.50
2019-04-20T14:45:52.475Z,98903.52
2019-04-20T14:50:00.770Z,98888.69
2019-04-20T14:54:05.434Z,98889.66
2019-04-20T14:58:13.034Z,98882.59
2019-04-20T15:02:19.844Z,98876.64
2019-04-20T15:06:25.529Z,98877.87
2019-04-20T15:10:31.077Z,98869.09
2019-04-20T15:14:36.747Z,98871.40
2019-04-20T15:18:51.849Z,98864.34
2019-04-20T15:22:57.627Z,98861.92
2019-04-20T15:27:02.616Z,98857.91
2019-04-20T15:31:07.974Z,98858.91
2019-04-20T15:35:18.972Z,98845.04
2019-04-20T15:39:21.060Z,98845.03
2019-04-20T15:43:27.875Z,98836.91
2019-04-20T15:47:34.101Z,98847.34
2019-04-20T15:51:39.791Z,98839.06
2019-04-20T15:55:46.919Z,98846.86
2019-04-20T15:59:52.603Z,98846.99
2019-04-20T16:03:59.388Z,98837.85
2019-04-20T16:08:23.681Z,98842.36
2019-04-20T16:12:29.101Z,98828.98
2019-04-20T16:16:34.069Z,98829.73
2019-04-20T16:20:51.960Z,98823.30
2019-04-20T16:24:47.193Z,98823.78
2019-04-20T16:28:53.370Z,98820.84
2019-04-20T16:32:58.732Z,98822.69
2019-04-20T16:37:04.313Z,98814.41
2019-04-20T16:41:10.345Z,98805.01
2019-04-20T16:45:15.423Z,98815.58
2019-04-20T16:49:21.303Z,98808.92
2019-04-20T16:53:26.860Z,98806.83
2019-04-20T16:57:31.946Z,98791.15
2019-04-20T17:01:37.177Z,98795.14
2019-04-20T17:05:43.252Z,98803.91
2019-04-20T17:09:49.894Z,98793.69
2019-04-20T17:13:57.993Z,98795.80
2019-04-20T17:18:01.609Z,98791.97
2019-04-20T17:22:07.555Z,98782.22
2019-04-20T17:26:14.705Z,98788.95
2019-04-20T17:30:25.551Z,98784.16
2019-04-20T17:34:46.971Z,98783.47
2019-04-20T17:38:43.375Z,98781.61
2019-04-20T17:42:53.179Z,98779.81
2019-04-20T17:47:00.499Z,98776.33
2019-04-20T17:51:17.407Z,98775.83
2019-04-20T17:55:22.915Z,98782.36
2019-04-20T17:59:22.238Z,98777.20
2019-04-20T18:04:03.278Z,98786.27
2019-04-20T18:07:56.536Z,98781.04
2019-04-20T18:11:50.338Z,98787.39
2019-04-20T18:16:17.050Z,98787.20
2019-04-20T18:20:07.390Z,98785.83
2019-04-20T18:24:24.197Z,98787.90
2019-04-20T18:28:32.404Z,98789.74
2019-04-20T18:32:27.496Z,98783.92
2019-04-20T18:36:38.298Z,98788.23
2019-04-20T18:40:48.367Z,98785.72
2019-04-20T18:45:09.238Z,98792.84
2019-04-20T18:49:10.283Z,98784.69
2019-04-20T18:53:00.150Z,98796.80
2019-04-20T18:57:11.409Z,98804.25
2019-04-20T19:01:12.860Z,98801.53
2019-04-20T19:05:18.143Z,98794.83
2019-04-20T19:09:27.167Z,98804.47
2019-04-20T19:13:44.062Z,98801.62
2019-04-20T19:17:59.240Z,98800.10
2019-04-20T19:21:56.189Z,98802.39
2019-04-20T19:26:08.323Z,98810.09
2019-04-20T19:30:22.600Z,98811.13
2019-04-20T19:34:35.437Z,98820.28
2019-04-20T19:38:29.618Z,98820.02
2019-04-20T19:42:43.476Z,98824.08
2019-04-20T19:47:03.268Z,98822.45
2019-04-20T19:51:05.898Z,98826.02
2019-04-20T19:55:06.644Z,98830.84
2019-04-20T19:59:10.983Z,98834.09
2019-04-20T20:03:03.659Z,98843.95
2019-04-20T20:07:18.783Z,98841.75
2019-04-20T20:11:21.770Z,98838.49
2019-04-20T20:15:27.834Z,98844.78
2019-04-20T20:19:46.118Z,98844.92
2019-04-20T20:23:36.247Z,98840.75
2019-04-20T20:27:49.136Z,98822.99
2019-04-20T20:32:03.308Z,98846.27
2019-04-20T20:36:04.213Z,98848.23
2019-04-20T20:40:11.025Z,98854.59
2019-04-20T20:44:22.279Z,98849.84
2019-04-20T20:48:29.732Z,98855.53
2019-04-20T20:52:39.671Z,98855.08
2019-04-20T20:56:35.828Z,98854.67
2019-04-20T21:00:48.457Z,98856.83
2019-04-20T21:04:43.720Z,98854.02
2019-04-20T21:08:53.166Z,98853.32
2019-04-20T21:12:57.815Z,98857.67
2019-04-20T21:17:12.266Z,98861.17
2019-04-20T21:21:26.243Z,98866.19
2019-04-20T21:25:17.021Z,98857.67
2019-04-20T21:29:29.950Z,98860.03
2019-04-20T21:33:32.714Z,98868.11
2019-04-20T21:37:35.158Z,98864.55
2019-04-20T21:41:49.712Z,98870.80
2019-04-20T21:45:52.376Z,98870.12
2019-04-20T21:50:13.491Z,98868.59
2019-04-20T21:54:02.053Z,98872.08
2019-04-20T21:58:09.096Z,98870.27
2019-04-20T22:02:20.933Z,98872.83
2019-04-20T22:06:22.342Z,98867.60
2019-04-20T22:10:30.886Z,98871.61
2019-04-20T22:14:35.312Z,98871.65
2019-04-20T22:18:54.368Z,98865.07
2019-04-20T22:22:59.805Z,98874.89
2019-04-20T22:27:05.419Z,98870.36
2019-04-20T22:31:00.367Z,98873.74
2019-04-20T22:35:11.948Z,98872.98
2019-04-20T22:39:39.704Z,98870.17
2019-04-20T22:43:40.302Z,98869.00
2019-04-20T22:47:45.914Z,98865.96
2019-04-20T22:51:59.672Z,98867.72
2019-04-20T22:56:22.107Z,98860.98
2019-04-20T23:00:11.051Z,98872.55
2019-04-20T23:04:15.001Z,98868.69
2019-04-20T23:08:20.452Z,98874.50
2019-04-20T23:12:27.585Z,98864.53
2019-04-20T23:16:37.965Z,98863.70
2019-04-20T23:20:40.511Z,98859.38
2019-04-20T23:24:45.265Z,98856.53
2019-04-20T23:28:55.224Z,98857.57
2019-04-20T23:32:57.940Z,98855.84
2019-04-20T23:37:03.060Z,98850.05
2019-04-20T23:41:08.069Z,98846.72
2019-04-20T23:45:34.042Z,98845.94
2019-04-20T23:49:54.409Z,98837.02
2019-04-20T23:53:53.950Z,98832.57
2019-04-20T23:57:55.851Z,98827.00
